Dufur, Oregon
Current Conditions -  °F | °C
As of 1:53 AM on Monday 26 Jan 2015 (Local Time) from KDLS Reporting Station
Overcast Overcast  
Wind Chill: 36°   Ceiling: 900
Heat Index: 42°   Visibility: 10mi
Dew Point: 39°   Wind: 10mph
Humidity: 89%   Direction: 80°E
Pressure: 30.13"   Gusts: NA
Location:  45.45°N, 121.13°W
Report Text: KDLS 260953Z AUTO 08009KT 10SM OVC009 06/04 A3013 RMK AO2 SLP204 T00560039
Loading
Personal Weather Stations






























Interactive Weather Map New forecast layout! Learn more

10-Day Weather Forecast

Advertisements
Track Severe Weather on mobile